Date,TemperatureHighF,TemperatureAvgF,TemperatureLowF,DewpointHighF,DewpointAvgF,DewpointLowF,HumidityHigh,HumidityAvg,HumidityLow,PressureMaxIn,PressureMinIn,WindSpeedMaxMPH,WindSpeedAvgMPH,GustSpeedMaxMPH,PrecipitationSumIn
2013-1-1,67.6,48.4,42.6,52.1,41.1,33.7,89,77,46,30.22,29.71,7,4,18,0.06
2013-1-2,53.4,51.1,47.1,48.7,44.8,42.3,86,79,68,30.53,30.21,4,2,12,0.00
2013-1-3,54.9,52.3,50.7,51.1,45.5,41.2,87,78,68,30.73,30.51,4,1,10,0.00
2013-1-4,55.0,52.0,50.2,50.9,47.7,45.5,87,85,78,30.75,30.62,4,2,11,0.00
2013-1-5,60.6,52.5,50.5,53.7,46.9,42.2,87,81,72,30.63,30.50,5,2,12,0.00
2013-1-6,52.7,50.8,49.3,45.3,41.2,38.9,82,70,66,30.57,30.39,4,2,9,0.02
2013-1-7,56.5,51.0,48.4,52.0,43.7,37.9,87,77,66,30.39,30.25,5,3,12,0.00
2013-1-8,54.5,52.1,49.5,48.0,42.8,38.6,85,71,65,30.30,30.23,4,2,11,0.03
2013-1-9,69.3,48.6,41.5,59.3,39.1,31.4,87,70,64,30.29,30.12,3,1,8,0.00
2013-1-10,57.7,45.9,39.4,51.9,38.2,29.4,89,74,66,30.14,29.98,6,2,14,0.22
2013-1-11,65.7,47.9,39.9,59.3,41.9,32.5,87,80,66,30.15,29.70,4,1,10,0.14
2013-1-12,55.8,46.0,42.8,49.7,36.4,32.6,87,69,66,29.87,29.53,5,1,12,0.16
2013-1-13,63.3,43.8,39.0,50.0,34.7,29.0,88,71,50,30.18,29.84,5,1,11,0.14
2013-1-14,59.4,45.5,43.9,52.5,38.0,33.6,88,75,66,30.11,29.83,10,5,18,0.13
2013-1-15,55.9,45.3,41.7,43.0,37.6,33.0,85,75,61,29.95,29.68,10,4,19,0.03
2013-1-16,56.1,42.7,41.5,44.4,34.3,31.6,88,72,65,29.88,29.63,4,2,11,0.11
2013-1-17,48.6,44.8,42.6,44.0,37.8,33.0,87,76,66,29.89,29.51,8,4,17,0.41
2013-1-18,67.8,45.2,38.7,60.0,36.4,28.7,87,71,66,29.51,29.29,8,2,19,0.06
2013-1-19,54.3,38.5,33.8,44.1,31.8,28.7,89,77,65,29.46,29.22,4,2,8,0.00
2013-1-20,54.9,35.8,30.9,33.6,29.2,26.8,88,78,42,29.43,29.19,4,2,7,0.00
2013-1-21,47.5,37.0,33.4,41.1,28.3,24.4,87,71,67,29.38,29.16,3,1,11,0.14
2013-1-22,44.8,38.3,32.9,34.1,28.7,23.9,70,68,66,29.53,29.21,6,2,14,0.13
2013-1-23,57.7,42.4,34.9,43.5,36.4,30.7,89,80,59,29.65,29.51,5,2,14,0.00
2013-1-24,55.4,40.5,34.3,45.2,35.9,30.6,88,84,60,29.93,29.65,4,1,8,0.00
2013-1-25,50.9,46.0,40.5,40.3,37.2,32.2,87,72,65,29.88,29.37,10,5,24,0.36
2013-1-26,63.1,50.6,43.5,50.8,43.8,37.6,88,78,61,29.82,29.37,11,6,22,0.08
2013-1-27,70.2,50.2,42.1,45.9,40.3,35.2,89,70,40,29.69,29.29,9,6,19,0.02
2013-1-28,52.3,47.7,39.0,47.4,38.9,29.7,88,72,65,29.78,29.56,11,5,27,0.22
2013-1-29,54.9,53.7,50.7,43.7,42.6,39.8,67,66,66,29.67,29.58,9,6,23,0.53
2013-1-30,72.9,53.3,46.4,52.2,43.0,37.1,88,69,43,29.98,29.59,8,4,18,0.06
2013-1-31,61.9,51.1,45.7,48.3,44.2,35.4,88,78,61,29.95,29.81,9,5,20,0.16
2013-2-1,46.4,45.6,44.1,35.7,35.0,33.4,67,66,66,29.87,29.58,5,1,9,0.50
2013-2-2,70.0,48.4,41.5,38.7,33.9,30.4,76,59,29,30.21,30.09,6,4,14,0.00
2013-2-3,53.1,46.1,41.2,41.8,37.3,33.4,84,72,64,30.19,30.06,4,1,13,0.11
2013-2-4,49.1,47.3,45.0,44.5,41.7,40.1,85,81,77,30.07,29.88,7,4,21,0.00
2013-2-5,62.1,46.2,38.5,44.9,39.2,31.6,89,77,43,29.87,29.59,12,6,21,0.14
2013-2-6,60.8,47.6,44.6,41.5,38.2,35.4,77,70,44,29.96,29.63,13,10,25,0.00
2013-2-12,59.0,47.1,43.2,44.7,40.8,36.9,86,79,59,29.96,29.87,2,1,4,0.00
2013-2-13,47.7,44.6,43.3,38.8,35.6,33.6,81,70,66,29.91,29.84,5,3,10,0.17
2013-2-26,44.2,42.9,41.7,37.8,36.5,34.7,80,78,76,30.43,30.26,5,2,11,0.00
2013-2-27,68.5,43.4,34.9,43.9,36.4,30.5,84,77,37,30.42,30.33,4,2,10,0.00
2013-2-28,48.0,39.5,30.7,35.6,30.9,26.8,85,72,57,30.35,30.20,3,1,7,0.00
2013-3-1,52.3,42.6,36.0,40.3,35.3,30.9,82,75,63,30.27,30.20,5,2,10,0.00
2013-3-2,44.6,41.2,38.7,35.2,32.4,30.8,78,71,64,30.26,30.15,4,1,8,0.00
2013-3-3,44.8,41.9,38.7,37.3,35.4,32.5,81,78,73,30.15,29.85,5,3,34,0.00
2013-3-4,63.5,46.9,42.4,43.7,39.2,36.4,84,75,47,29.85,29.57,8,4,17,0.00
2013-3-5,63.5,49.5,42.6,50.6,43.7,37.5,85,81,62,29.58,29.34,6,3,13,0.00
2013-3-6,52.7,50.2,49.1,48.3,45.7,43.8,85,85,82,29.37,29.27,4,3,7,0.00
2013-3-12,51.8,41.1,37.0,29.7,25.2,20.9,67,54,34,29.89,29.82,6,4,15,0.00
2013-3-13,67.1,45.8,38.1,40.3,33.3,28.2,76,63,34,29.92,29.82,7,3,16,0.00
2013-3-15,44.8,44.6,44.4,34.5,34.3,34.2,67,67,67,29.35,29.34,2,2,4,0.00
2013-3-16,60.1,44.3,37.8,56.5,36.0,28.3,88,73,67,29.34,29.14,9,2,14,0.25
2013-3-19,43.0,41.8,40.6,39.4,35.6,30.9,87,79,68,29.42,29.38,1,0,4,0.06
2013-3-20,67.1,43.4,33.3,52.2,34.6,24.4,87,71,48,29.80,29.41,3,1,6,0.00
2013-3-21,52.0,47.0,41.4,41.4,37.5,32.3,86,70,66,29.80,29.42,9,5,19,1.52
2013-3-22,64.8,50.4,46.2,55.4,41.4,35.9,89,71,67,29.50,29.28,8,4,16,0.42
2013-3-23,64.2,47.5,40.8,51.0,40.6,34.5,88,77,61,29.71,29.50,7,4,16,0.00
2013-3-24,42.3,39.9,36.9,38.7,36.4,33.1,88,87,84,29.81,29.61,7,4,12,0.00
2013-3-25,41.2,37.4,34.7,33.4,30.9,28.9,87,77,70,29.85,29.74,6,3,10,0.00
2013-3-26,55.8,38.6,31.8,32.4,29.0,26.7,82,69,40,29.84,29.78,5,2,10,0.00
2013-3-27,54.5,37.8,31.1,34.1,28.4,25.1,79,69,43,29.79,29.72,4,1,6,0.00
2013-3-29,40.5,38.1,36.7,35.4,33.2,30.5,88,82,78,29.55,29.46,8,6,16,0.03
2013-3-30,49.3,39.0,33.4,34.6,28.8,27.1,87,67,49,29.81,29.55,6,1,11,0.00
2013-3-31,54.9,41.8,35.8,34.9,31.2,-6.8,77,66,44,29.81,29.59,100,4,101,1.83
2013-4-1,46.2,41.6,39.4,33.4,31.2,28.5,74,66,59,29.66,29.51,9,5,15,0.00
2013-4-2,60.4,42.3,33.8,36.1,30.7,27.4,78,64,37,29.89,29.63,7,4,12,0.00
2013-4-3,68.4,43.0,30.4,33.3,27.7,20.5,82,59,20,29.97,29.83,5,2,12,0.00
2013-4-4,59.9,41.8,34.5,32.4,27.3,23.4,72,57,30,29.97,29.84,6,3,18,0.00
2013-4-5,64.6,44.7,36.3,33.0,29.1,23.6,69,56,29,30.03,29.83,7,4,17,0.00
2013-4-6,71.2,44.1,29.5,33.5,28.5,23.0,78,58,22,30.17,30.03,5,1,10,0.00
2013-4-7,51.6,42.7,34.9,38.1,34.0,28.8,82,72,55,30.10,29.58,7,4,16,0.17
2013-4-8,60.8,46.1,40.6,46.9,37.3,30.6,87,71,60,29.58,29.21,6,4,14,0.08
2013-4-9,51.6,47.0,43.5,47.6,41.6,34.0,88,82,68,29.59,29.21,6,2,12,0.15
2013-4-10,52.2,46.1,39.2,48.2,40.0,34.5,88,79,68,29.63,29.39,6,2,11,0.04
2013-4-11,71.8,51.4,43.5,58.6,43.9,36.1,87,76,53,29.51,29.36,7,3,14,0.21
2013-4-12,78.8,54.3,46.0,56.8,43.4,35.7,87,68,39,29.79,29.33,4,2,10,0.15
2013-4-13,54.9,50.7,43.9,44.5,41.5,38.1,86,71,66,29.86,29.64,8,4,18,0.35
2013-4-14,65.1,54.1,51.6,58.2,47.6,41.9,87,79,67,30.04,29.80,9,6,28,0.00
2013-4-15,65.3,53.7,50.2,56.0,48.4,40.9,88,82,67,30.16,29.96,7,5,18,0.04
2013-4-16,74.7,54.9,49.6,55.5,46.4,39.1,88,73,50,30.14,29.94,8,4,16,0.01
2013-4-17,57.0,52.9,48.6,52.8,45.7,41.0,88,77,67,30.08,29.80,9,6,19,0.00
2013-4-18,75.7,54.2,47.1,50.0,44.0,40.5,86,70,36,30.16,29.86,8,5,21,0.00
2013-4-19,79.9,54.2,41.5,51.9,44.9,37.4,86,73,35,30.45,30.16,5,2,9,0.00
2013-4-20,77.5,51.2,35.8,51.0,41.1,31.7,86,71,36,30.46,30.33,4,1,8,0.00
2013-4-21,63.7,48.2,39.0,49.8,42.3,34.7,86,80,60,30.34,30.11,6,2,13,0.00
2013-4-22,49.1,49.0,48.7,45.4,45.1,44.7,87,86,86,30.16,30.14,1,1,4,0.00
2013-4-25,54.3,50.7,49.1,49.9,46.5,44.8,86,86,84,30.25,30.14,4,2,11,0.00
2013-4-26,68.7,51.6,45.1,45.9,41.0,37.7,86,69,39,30.25,30.04,8,5,15,0.00
2013-4-27,70.2,50.8,43.9,44.9,40.5,37.9,82,69,38,30.16,30.02,7,4,13,0.13
2013-4-28,64.6,50.0,42.4,48.0,41.7,36.6,84,74,45,30.17,30.00,6,2,12,0.00
2013-4-29,75.9,53.2,43.5,47.7,42.3,36.0,86,69,33,30.26,30.06,8,4,14,0.00
2013-4-30,72.3,52.4,42.3,48.2,42.8,38.1,85,72,38,30.33,30.18,7,3,13,0.00
2013-5-1,73.9,52.9,41.9,49.0,43.3,37.2,85,72,35,30.29,30.19,6,2,12,0.00
2013-5-2,76.1,55.0,45.5,52.7,45.6,40.0,85,72,39,30.30,30.14,5,2,11,0.00
2013-5-3,66.6,53.9,42.1,53.3,45.1,37.3,84,73,51,30.26,30.08,6,2,14,0.00
2013-5-4,79.5,56.8,49.3,53.6,47.8,44.0,84,74,37,30.19,30.02,7,3,13,0.00
2013-5-5,77.2,56.4,46.8,53.4,46.9,41.9,84,72,39,30.25,30.12,4,2,10,0.00
2013-5-6,76.5,57.4,45.1,54.5,48.1,40.0,84,73,45,30.19,29.90,4,2,8,0.00
2013-5-7,76.6,59.3,51.8,53.2,48.6,42.6,83,69,41,29.99,29.54,6,3,17,0.11
2013-5-8,64.8,54.8,46.9,58.8,45.8,40.9,85,72,64,29.76,29.49,8,5,18,0.03
2013-5-9,59.9,51.0,46.8,47.6,42.3,38.7,84,72,61,29.76,29.61,10,6,25,0.11
2013-5-10,66.7,53.1,45.0,55.8,44.7,34.3,85,73,65,29.90,29.73,7,4,15,0.14
2013-5-11,69.4,53.4,45.0,54.0,43.8,34.3,85,70,54,29.96,29.77,7,4,16,0.06
2013-5-12,57.4,52.3,47.8,51.9,46.3,41.8,85,80,65,30.15,29.94,6,3,14,0.02
2013-5-13,67.8,54.5,48.4,49.9,45.9,42.8,85,74,49,30.03,29.83,7,3,16,0.00
2013-5-14,53.4,48.0,43.3,43.5,39.2,32.9,84,72,64,29.84,29.06,16,4,32,0.89
2013-5-15,54.9,49.9,45.5,44.9,42.7,40.3,83,76,67,29.55,29.51,4,2,8,0.00
2013-5-16,45.1,41.2,38.8,40.3,35.4,31.6,84,80,68,29.51,29.43,2,0,4,0.25
2013-5-17,50.0,49.1,47.1,45.4,44.3,42.2,84,83,83,29.80,29.77,0,0,2,0.00
2013-5-18,56.3,46.8,44.6,50.9,40.8,37.9,84,79,72,29.80,29.73,2,0,4,0.00
2013-5-26,81.5,60.4,45.5,49.9,43.6,39.2,79,57,30,30.09,29.87,4,2,9,0.00
2013-5-27,60.6,50.9,45.0,50.5,41.8,34.3,81,71,62,29.88,29.45,7,3,18,0.61
2013-5-28,77.2,55.9,42.8,54.7,44.3,32.4,82,66,42,29.57,29.43,5,2,10,0.02
2013-5-29,70.0,54.5,47.8,53.6,44.7,36.0,84,70,53,29.82,29.45,8,4,16,0.61
2013-5-30,77.4,58.8,53.2,56.4,50.4,47.2,82,75,46,29.97,29.79,6,3,12,0.00
2013-5-31,79.9,60.4,50.4,57.5,51.0,43.1,82,72,43,30.13,29.97,5,2,9,0.00
2013-6-1,61.0,54.0,51.8,52.7,44.0,39.6,82,69,63,30.20,30.12,5,3,11,0.00
2013-6-2,77.5,63.1,52.3,58.2,51.7,45.9,81,67,45,30.39,30.23,6,3,9,0.00
2013-6-3,82.8,61.4,48.4,54.0,47.7,42.5,81,64,31,30.41,30.26,4,1,9,0.00
2013-6-4,77.2,58.2,44.6,50.3,45.2,38.8,80,64,35,30.34,30.12,5,2,11,0.00
2013-6-5,73.8,56.9,46.9,54.6,47.9,40.6,80,73,50,30.13,29.98,5,2,8,0.00
2013-6-6,79.3,62.7,51.3,56.9,51.1,45.0,79,67,44,30.04,29.95,6,3,13,0.00
2013-6-7,81.5,65.4,54.5,58.1,53.5,47.4,79,67,42,30.07,29.97,6,2,14,0.00
2013-6-8,84.9,63.0,53.6,65.6,52.0,40.6,79,68,40,30.07,29.96,4,2,11,0.21
2013-6-9,69.8,57.6,46.0,53.4,47.8,39.2,80,70,56,29.98,29.89,4,1,8,0.00
2013-6-10,59.2,53.7,46.0,52.3,44.9,39.9,80,72,61,29.94,29.68,5,2,12,0.11
2013-6-11,73.6,59.3,54.3,61.1,47.9,42.0,80,66,61,29.72,29.59,7,4,16,0.12
2013-6-12,61.0,57.4,54.5,51.6,45.9,42.7,82,66,62,29.77,29.64,8,5,19,0.14
2013-6-13,81.1,61.2,53.6,57.6,49.3,41.2,81,66,42,30.04,29.65,8,5,20,0.00
2013-6-14,59.4,55.5,50.7,46.6,42.9,39.4,65,63,61,29.98,29.67,4,3,10,0.00
2013-6-15,77.2,57.9,48.6,57.4,46.6,36.9,81,67,45,29.88,29.65,8,4,22,0.13
2013-6-16,63.9,56.3,52.7,56.9,47.4,40.5,81,72,62,29.83,29.65,6,3,17,0.13
2013-6-17,68.9,58.9,54.5,60.7,48.6,42.8,81,69,62,29.86,29.71,6,2,12,0.20
2013-6-18,76.5,61.3,56.5,64.7,52.0,44.0,81,72,62,29.97,29.80,4,1,12,0.00
2013-6-19,74.7,60.5,52.9,61.2,51.6,41.6,81,73,62,29.97,29.89,6,2,11,0.00
2013-6-20,68.0,57.7,54.1,58.4,48.8,43.1,81,73,62,29.92,29.74,4,2,8,0.16
2013-6-21,81.5,61.5,54.3,61.9,49.9,41.6,80,66,49,29.90,29.76,6,3,12,0.11
2013-6-22,72.1,58.7,54.7,59.1,48.1,42.1,81,68,62,29.78,29.65,9,5,19,0.20
2013-6-23,55.6,54.9,54.5,48.8,43.1,42.2,78,64,63,29.87,29.72,5,4,18,0.00
2013-6-27,82.9,66.8,57.2,61.2,55.8,48.6,81,69,47,30.32,30.19,4,2,8,0.00
2013-6-28,68.0,61.4,56.7,59.2,53.2,45.9,80,74,66,30.19,30.13,5,2,8,0.00
2013-6-29,71.1,61.5,56.8,61.2,52.5,44.4,80,72,63,30.25,30.11,5,2,9,0.00
2013-6-30,72.9,61.0,53.6,59.6,52.3,42.8,80,73,62,30.25,30.10,4,2,9,0.00
2013-7-1,62.2,57.3,55.6,54.1,50.4,48.8,81,78,73,30.11,30.03,2,1,8,0.00
2013-7-2,61.7,59.3,57.9,48.4,46.4,45.1,65,62,61,29.79,29.65,7,3,12,0.14
2013-7-3,59.4,56.2,54.5,47.0,44.8,43.0,66,65,64,29.74,29.64,4,2,9,0.00
2013-7-5,56.3,55.2,53.4,49.9,49.1,47.1,80,80,79,30.33,30.31,1,0,2,0.00
2013-7-6,83.1,62.8,51.1,58.8,52.5,44.8,80,70,41,30.38,30.27,6,2,11,0.00
2013-7-7,89.1,67.6,56.5,64.9,56.6,45.3,80,69,44,30.37,30.29,5,2,8,0.00
2013-7-8,96.6,71.5,56.7,65.9,57.0,49.5,79,63,34,30.46,30.33,4,1,8,0.00
2013-7-9,92.1,70.1,57.4,66.1,57.1,50.9,79,65,41,30.38,30.21,5,2,8,0.00
2013-7-10,94.6,69.7,52.9,63.3,54.4,46.2,79,61,32,30.28,30.21,5,1,9,0.00
2013-7-11,87.3,66.7,55.0,61.2,55.0,48.3,78,67,38,30.24,30.07,5,1,10,0.00
2013-7-12,86.5,64.9,50.4,61.8,54.1,43.3,79,69,43,30.23,30.09,6,2,10,0.00
2013-7-13,92.5,69.1,55.0,65.9,57.8,46.7,78,69,42,30.23,30.14,4,2,7,0.00
2013-7-14,93.7,71.3,61.3,68.2,59.6,48.6,78,67,43,30.24,30.18,5,2,7,0.00
2013-7-15,85.8,68.3,60.3,63.1,58.4,53.2,79,71,46,30.22,30.15,5,2,9,0.00
2013-7-16,87.6,67.9,59.9,64.7,57.7,51.6,79,71,44,30.20,30.13,5,2,12,0.00
2013-7-17,90.0,68.9,57.7,67.5,57.6,45.8,79,68,46,30.26,30.16,6,2,11,0.00
2013-7-18,91.4,71.4,57.0,68.8,58.5,47.1,78,65,44,30.28,30.17,5,2,8,0.00
2013-7-19,94.6,73.1,59.9,65.4,58.7,52.3,78,63,32,30.26,30.07,6,2,12,0.00
2013-7-22,75.2,69.1,63.9,65.9,60.4,51.0,78,74,63,30.14,30.04,3,2,7,0.00
2013-7-23,86.9,75.7,64.9,64.4,61.2,56.6,77,62,44,30.02,29.96,5,3,11,0.00
2013-7-24,79.0,66.6,61.7,67.1,55.8,49.3,78,68,60,30.06,30.00,5,3,13,0.61
2013-7-25,93.0,69.5,60.6,66.6,57.5,50.8,80,67,36,30.05,29.96,4,2,9,0.00
2013-7-26,82.2,67.3,60.4,64.8,56.3,49.1,80,68,52,30.02,29.93,4,2,10,0.00
2013-7-27,71.4,65.4,60.1,61.1,56.3,47.4,78,73,63,29.78,29.72,3,1,6,0.03
2013-7-28,65.3,62.5,60.6,52.8,50.6,49.4,68,65,64,29.92,29.80,4,2,9,0.35
2013-7-29,85.8,67.9,59.9,65.9,56.6,49.3,82,68,45,30.05,29.91,7,3,14,0.00
2013-7-30,67.8,62.0,59.7,57.0,52.3,48.3,81,71,64,30.02,29.91,3,1,6,0.11
2013-8-2,87.6,68.0,41.3,66.1,54.3,-10.0,83,65,10,29.95,29.85,6,3,12,0.33
2013-8-3,86.5,66.4,55.4,66.7,55.4,46.5,82,69,43,30.13,29.91,6,2,13,0.04
2013-8-4,69.4,64.4,59.5,63.7,54.6,48.4,82,71,66,30.16,30.00,7,4,14,0.57
2013-8-5,78.6,64.1,57.9,68.8,55.5,50.7,85,74,67,30.10,29.84,7,2,16,1.05
2013-8-6,91.0,63.7,51.3,61.3,52.5,43.6,83,68,36,30.11,30.03,3,1,6,0.00
2013-8-8,72.9,64.9,62.2,60.5,53.9,50.7,78,68,65,30.13,30.06,5,4,12,0.09
2013-8-9,89.8,66.2,57.4,63.2,54.3,49.0,82,67,39,30.27,30.09,5,2,9,0.03
2013-8-10,73.2,64.3,55.9,62.7,57.2,50.0,81,78,66,30.24,30.14,4,1,7,0.00
2013-8-11,90.3,67.7,60.1,63.6,55.7,49.1,82,67,41,30.15,30.03,5,1,7,0.00
2013-8-12,87.6,65.5,59.4,60.3,54.5,52.1,80,69,36,30.12,29.98,6,2,11,0.00
2013-8-13,76.1,60.9,53.1,58.5,52.2,46.9,80,74,53,30.19,30.11,3,0,6,0.00
2013-8-16,87.6,67.4,57.9,67.6,56.9,51.6,82,70,43,30.06,29.95,5,2,9,0.00
2013-8-17,66.4,61.9,56.5,59.3,53.3,49.2,82,74,67,30.02,29.79,7,3,14,0.53
2013-8-18,87.3,65.8,54.3,70.9,54.9,44.7,82,68,47,29.95,29.76,4,1,11,0.05
2013-8-19,90.0,64.9,54.3,62.5,53.3,44.7,82,68,37,30.28,29.94,4,1,7,0.00
2013-8-20,91.0,64.6,51.1,65.0,53.6,44.6,82,69,37,30.33,30.23,4,1,9,0.00
2013-8-21,93.7,67.9,55.0,66.5,56.7,48.0,81,69,38,30.23,30.10,4,1,8,0.00
2013-8-22,94.1,69.0,60.8,65.9,58.0,53.1,81,70,32,30.10,29.92,4,1,8,0.00
2013-8-23,74.7,64.7,58.8,64.6,57.2,52.0,80,77,66,29.93,29.85,4,1,6,0.00
2013-8-24,84.2,65.2,57.7,56.2,53.6,50.5,81,68,37,30.06,29.90,6,3,14,0.00
2013-8-25,83.5,66.1,61.0,60.9,55.1,50.1,81,69,45,30.02,29.86,6,3,13,0.00
2013-8-28,80.8,69.4,62.2,64.1,60.3,55.6,79,73,57,30.27,30.21,6,2,8,0.00
2013-8-29,75.0,66.8,58.1,63.1,58.4,52.0,80,75,65,30.24,30.14,4,1,8,0.00
2013-8-30,80.8,68.4,63.9,66.7,60.4,56.1,80,76,63,30.30,30.10,4,1,14,0.02
2013-8-31,82.9,66.9,59.9,57.6,52.7,47.1,80,62,34,30.41,30.26,6,3,14,0.00
2013-9-1,85.5,65.0,52.2,60.9,52.7,44.8,77,66,40,30.44,30.34,3,1,7,0.00
2013-9-2,87.3,66.5,59.9,61.0,55.2,52.5,78,68,41,30.38,30.27,4,2,9,0.00
2013-9-3,88.3,67.2,57.7,63.6,56.4,50.4,79,70,43,30.30,30.17,4,1,8,0.00
2013-9-4,81.0,64.4,55.6,64.4,55.6,48.5,79,74,53,30.17,29.93,3,1,8,0.00
2013-9-5,86.9,65.1,57.4,66.2,55.7,50.4,80,72,48,30.00,29.84,6,2,12,0.04
2013-9-6,76.8,60.1,53.8,57.1,51.0,47.4,79,72,49,29.87,29.77,4,1,10,0.72
2013-9-7,79.0,59.8,52.5,58.4,49.9,46.4,80,71,46,29.98,29.79,6,1,14,0.18
2013-9-8,76.1,60.4,53.8,57.9,51.0,47.3,79,72,51,30.01,29.87,5,1,14,0.18
2013-9-9,82.9,64.0,56.5,63.6,53.7,47.2,80,70,49,30.11,29.77,6,3,12,0.07
2013-9-10,81.5,64.6,58.3,57.7,53.7,51.1,80,69,42,30.24,30.10,7,3,13,0.00
2013-9-11,69.6,62.9,59.4,58.6,55.0,52.8,79,76,66,30.23,30.06,5,2,9,0.00
2013-9-12,70.3,64.6,61.5,63.2,57.0,52.4,79,76,72,30.21,30.03,5,2,9,0.04
2013-9-13,68.9,63.5,58.3,62.1,55.7,52.1,80,76,70,30.16,30.05,6,2,14,0.25
2013-9-14,82.2,62.3,54.5,58.5,51.1,45.8,81,68,41,30.09,29.98,5,2,10,0.00
2013-9-15,64.4,57.8,50.0,57.6,50.5,42.7,80,77,73,30.04,29.68,6,2,14,0.12
2013-9-16,81.3,61.5,54.5,54.9,49.6,46.7,78,66,38,29.82,29.69,6,4,15,0.05
2013-9-17,66.7,61.0,56.7,60.0,53.8,47.0,79,77,70,29.78,29.57,7,3,20,0.08
2013-9-29,62.1,60.5,60.1,54.0,51.5,50.3,75,72,70,29.84,29.80,4,3,10,0.00
2013-9-30,71.6,63.1,59.9,64.4,54.5,49.5,80,74,68,29.83,29.73,5,3,12,0.00
2013-10-1,70.0,62.9,61.5,60.5,52.3,50.2,77,69,66,29.83,29.71,5,2,9,0.30
2013-10-2,69.3,64.0,62.1,62.8,54.3,50.8,81,71,67,29.91,29.78,6,4,16,0.14
2013-10-3,67.1,63.3,61.5,59.1,53.9,51.2,78,71,68,29.89,29.71,6,3,10,0.69
2013-10-4,76.5,64.5,59.7,66.6,56.2,50.8,81,75,67,30.15,29.70,4,2,9,0.03
2013-10-5,75.7,62.9,57.4,60.5,54.2,50.4,80,74,54,30.33,30.14,2,0,4,0.00
2013-10-6,77.5,63.1,55.6,64.6,55.7,49.3,80,77,65,30.42,30.27,3,1,7,0.00
2013-10-7,80.4,65.4,61.3,66.6,56.9,51.8,80,74,61,30.42,30.30,4,2,10,0.00
2013-10-8,68.0,63.3,60.3,61.6,55.9,51.7,80,77,72,30.45,30.31,4,1,7,0.06
2013-10-9,69.6,61.1,55.8,58.4,53.1,46.5,81,75,65,30.40,30.11,6,3,14,0.00
2013-10-10,75.2,58.3,53.2,49.9,44.7,40.1,74,62,39,30.23,30.05,5,4,12,0.00
2013-10-11,76.1,63.0,52.9,52.0,49.6,40.6,75,63,40,30.13,29.96,6,4,18,0.00
2013-10-12,69.6,58.0,51.4,59.4,50.0,44.5,78,75,67,30.12,29.90,6,3,14,0.00
2013-10-13,70.7,58.3,52.2,59.9,51.1,45.5,80,77,68,30.00,29.79,4,1,9,0.09
2013-10-14,61.9,56.2,50.0,53.7,49.6,44.1,80,78,73,29.85,29.69,4,2,8,0.11
2013-10-15,64.2,54.6,47.1,54.1,47.8,41.6,81,78,67,29.72,29.58,5,1,10,0.00
2013-10-16,79.0,62.3,55.8,63.1,53.2,45.3,80,72,56,29.95,29.44,7,4,19,0.61
2013-10-17,76.1,62.8,57.7,64.4,54.9,49.7,80,75,66,30.07,29.85,4,3,10,0.00
2013-10-18,61.2,59.2,57.4,54.9,51.4,48.5,81,75,66,29.94,29.53,7,4,18,0.33
2013-10-19,70.7,61.3,56.8,61.3,52.5,48.7,81,73,66,29.66,29.48,6,4,14,0.06
2013-10-20,66.4,59.6,55.4,59.3,52.9,48.7,81,79,72,29.71,29.42,8,4,15,0.26
2013-10-21,62.4,60.2,58.5,52.5,49.7,47.8,74,68,66,29.64,29.45,8,5,24,0.68
2013-10-22,67.6,60.8,57.7,61.6,52.6,48.1,81,74,67,29.45,29.22,7,5,20,0.18
2013-10-23,74.3,60.0,54.3,61.3,52.2,48.2,82,76,62,29.79,29.19,5,2,12,0.07
2013-10-24,61.5,58.3,54.3,54.4,49.9,45.4,81,74,67,29.76,29.51,7,3,14,0.04
2013-10-25,68.9,61.3,59.0,60.4,52.8,48.2,81,74,67,29.67,29.48,8,5,19,0.14
2013-10-26,65.7,59.1,54.5,58.8,51.8,46.8,81,77,70,29.71,29.43,9,4,17,0.30
2013-10-27,67.3,57.4,53.1,57.8,50.3,46.2,81,77,66,29.61,29.06,9,5,22,1.28
2013-10-28,65.8,55.3,51.6,55.8,48.3,46.0,82,77,66,29.63,28.99,9,5,21,0.50
2013-10-29,68.4,54.8,50.2,53.6,47.0,44.4,82,75,58,29.97,29.60,5,2,12,0.04
2013-10-30,62.6,54.4,48.4,54.6,47.5,42.8,81,78,68,30.00,29.87,8,2,19,0.11
2013-10-31,79.5,52.1,-25.8,74.6,16.6,-99.9,96,50,1,31.84,27.10,112,44,120,23.00
2013-11-1,89.6,50.0,-25.8,77.2,15.0,-99.9,99,48,1,29.88,29.51,112,32,115,0.28
2013-11-2,66.6,55.3,50.0,54.1,47.1,42.6,81,74,60,29.57,29.37,11,4,30,0.14
2013-11-3,56.7,53.1,49.6,48.1,45.0,40.6,80,74,67,29.60,28.96,10,5,23,0.88
2013-11-4,71.8,55.7,49.3,55.4,47.6,43.0,82,75,52,29.40,29.01,7,3,15,0.02
2013-11-5,61.3,56.1,54.3,53.9,49.2,46.9,81,78,73,29.46,29.24,5,3,18,0.20
2013-11-6,60.6,58.1,55.0,53.4,50.0,47.2,78,74,69,29.61,29.40,9,6,22,0.11
2013-11-7,62.4,53.4,48.9,55.1,47.3,43.3,82,80,74,29.66,29.54,3,1,7,0.00
2013-11-8,62.6,50.3,46.9,54.8,44.0,41.4,81,79,72,29.70,29.46,4,1,13,0.33
2013-11-9,63.1,52.1,46.4,51.7,45.1,40.9,81,77,64,29.69,29.40,6,2,15,0.50
2013-11-10,63.0,53.4,49.6,52.6,45.9,42.2,81,76,66,30.00,29.55,8,3,13,0.76
2013-11-11,59.2,56.9,55.8,52.3,46.7,44.6,78,69,66,30.18,29.86,4,2,10,0.11
2013-11-12,67.1,55.0,49.8,56.2,47.3,43.6,81,75,66,30.32,30.04,5,3,11,0.09
2013-11-13,59.5,50.3,43.0,49.5,43.7,37.9,82,78,67,30.45,30.14,6,2,14,0.00
2013-11-14,62.2,53.0,50.5,49.7,44.7,41.4,81,73,58,30.32,30.14,9,6,21,0.01
2013-11-15,55.9,52.4,50.5,46.3,44.3,42.5,78,74,69,30.37,30.26,6,3,14,0.00
2013-11-16,54.5,51.9,49.6,48.1,45.5,43.6,80,79,77,30.33,30.17,4,1,7,0.00
2013-11-17,54.9,52.5,50.7,47.4,45.6,44.1,80,77,70,30.19,29.87,2,0,4,0.00
2013-11-18,54.0,50.3,47.7,47.9,44.0,39.6,81,79,71,29.87,29.70,7,2,17,0.04
2013-11-19,57.2,47.3,44.8,42.1,37.0,32.8,79,67,56,30.07,29.82,10,6,19,0.03
2013-11-20,54.9,49.1,46.6,47.4,41.9,36.8,80,76,69,30.00,29.56,12,6,28,0.08
2013-11-21,52.5,48.0,44.4,44.1,40.9,37.7,81,76,70,29.87,29.54,10,5,19,0.09
2013-11-22,63.7,46.5,38.7,46.4,38.1,33.0,80,73,52,30.01,29.87,4,1,8,0.00
2013-12-23,54.5,53.2,51.1,44.5,43.2,41.3,73,69,68,29.27,28.65,12,8,30,1.11
2013-12-24,54.5,46.7,43.0,45.3,40.3,36.9,83,78,69,28.92,28.71,9,5,20,0.12
2013-12-25,48.6,44.4,41.9,42.8,39.2,36.8,82,82,81,28.89,28.79,3,1,7,0.00
2013-12-26,60.1,47.9,42.6,50.3,41.3,37.2,82,78,67,29.39,29.18,5,2,14,0.07
2013-12-27,66.0,50.1,44.2,50.3,41.7,38.7,81,73,57,29.27,28.98,8,4,15,0.03
2013-12-28,54.1,44.7,41.7,48.4,39.3,36.3,82,81,79,29.68,29.24,6,1,9,0.33
2013-12-29,55.0,48.4,41.5,46.0,42.1,36.5,82,79,69,29.96,29.68,8,4,21,0.10
2013-12-30,64.9,52.3,48.6,54.9,44.6,40.5,81,75,64,29.71,29.36,10,5,19,0.42
2013-12-31,61.3,50.0,46.6,46.6,43.2,40.7,81,78,58,29.51,29.29,8,5,18,0.69
2014-1-1,54.5,50.6,46.2,44.0,41.7,39.2,81,72,67,29.39,28.78,10,5,23,0.89
2014-1-2,61.5,50.3,45.9,53.0,43.6,39.5,82,78,68,29.25,29.01,8,4,17,0.17